Terminal Aerodrome Forecast
Issued by NWS

Home | Current Version | Previous Version | Graphics & Text | Print | Product List | Glossary Off
Versions: 1 2 3 4 5 6 7 8 9 10 11 12 13 14 15 16 17 18 19 20 21 22 23 24 25 26 27

000
FTUS43 KGRB 261720
TAFATW
TAF
KATW 261720Z 2618/2718 20008KT P6SM SCT090
     FM262000 20008G15KT P6SM SCT035
     FM270600 15004KT 4SM BR SCT008 BKN250
      TEMPO 2708/2712 2SM BR BKN005
     FM271500 15008KT 5SM -SHRA BR BKN025 OVC060=

USA.gov is the U.S. government's official web portal to all federal, state and local government web resources and services.